DALKI BIRK-BGGH
Flight info
| Callsign | DALKI |
|---|---|
| Flight time | N/A |
| Altitude | 34000 |
| Route | M057F340 DCT SORIR DCT SOSIT/M053F280 UT593 SABAG/M057F340 DCT ASTAN/M053F280 Y47 BAMAM DCT |
| Aircraft | C550/L-SDFGHRWY/S |
Departure
| Time | 2026-04-28 21:33 |
|---|---|
| Airport | Reykjavík Domestic Airport (BIRK) |
Arrival
| Time | N/A |
|---|---|
| Airport | Nuuk International Airport (BGGH) |
| Time | Latitude | Longitude | Altitude | Speed | Heading |
|---|---|---|---|---|---|
| 2026-04-28 21:25 | 64.13113 | -21.93480 | 46 ft | 0 kts | 358° |
| 2026-04-28 21:26 | 64.13112 | -21.93480 | 46 ft | 0 kts | 358° |
| 2026-04-28 21:31 | 64.13117 | -21.93485 | 46 ft | 1 kts | 321° |
| 2026-04-28 21:31 | 64.13153 | -21.93565 | 48 ft | 9 kts | 348° |
| 2026-04-28 21:31 | 64.13232 | -21.93572 | 46 ft | 15 kts | 2° |
| 2026-04-28 21:31 | 64.13359 | -21.93592 | 41 ft | 17 kts | 354° |
| 2026-04-28 21:32 | 64.13494 | -21.93621 | 35 ft | 13 kts | 356° |
| 2026-04-28 21:32 | 64.13597 | -21.93710 | 31 ft | 20 kts | 322° |
| 2026-04-28 21:32 | 64.13628 | -21.93876 | 33 ft | 3 kts | 226° |
| 2026-04-28 21:32 | 64.13607 | -21.93888 | 34 ft | 4 kts | 180° |
| 2026-04-28 21:33 | 64.13582 | -21.93886 | 34 ft | 5 kts | 177° |
| 2026-04-28 21:33 | 64.13461 | -21.93864 | 38 ft | 52 kts | 175° |
| 2026-04-28 21:33 | 64.12787 | -21.93758 | 112 ft | 133 kts | 179° |
| 2026-04-28 21:33 | 64.11748 | -21.93709 | 663 ft | 162 kts | 192° |
| 2026-04-28 21:34 | 64.10755 | -21.95094 | 1643 ft | 183 kts | 232° |
| 2026-04-28 21:34 | 64.10589 | -21.98139 | 2717 ft | 212 kts | 278° |
| 2026-04-28 21:34 | 64.11487 | -22.00907 | 3732 ft | 226 kts | 311° |
| 2026-04-28 21:34 | 64.12735 | -22.03234 | 4599 ft | 232 kts | 312° |
| 2026-04-28 21:35 | 64.13904 | -22.05751 | 5525 ft | 228 kts | 302° |
| 2026-04-28 21:35 | 64.14852 | -22.08604 | 6454 ft | 221 kts | 291° |
| 2026-04-28 21:35 | 64.15526 | -22.11712 | 7313 ft | 216 kts | 280° |
| 2026-04-28 21:35 | 64.15980 | -22.14967 | 8151 ft | 214 kts | 274° |
| 2026-04-28 21:36 | 64.16331 | -22.18277 | 9007 ft | 214 kts | 271° |
| 2026-04-28 21:36 | 64.16655 | -22.21613 | 9901 ft | 216 kts | 270° |
| 2026-04-28 21:36 | 64.16994 | -22.24984 | 10685 ft | 218 kts | 270° |
| 2026-04-28 21:36 | 64.17346 | -22.28378 | 11469 ft | 220 kts | 270° |
| 2026-04-28 21:37 | 64.17700 | -22.31760 | 12216 ft | 222 kts | 270° |
| 2026-04-28 21:37 | 64.18063 | -22.35212 | 12985 ft | 224 kts | 269° |
| 2026-04-28 21:37 | 64.18434 | -22.38749 | 13741 ft | 226 kts | 269° |
| 2026-04-28 21:37 | 64.18798 | -22.42218 | 14388 ft | 227 kts | 269° |
| 2026-04-28 21:38 | 64.19173 | -22.45803 | 15074 ft | 229 kts | 268° |
| 2026-04-28 21:38 | 64.19540 | -22.49314 | 15734 ft | 230 kts | 268° |
| 2026-04-28 21:38 | 64.19914 | -22.52899 | 16434 ft | 232 kts | 267° |
| 2026-04-28 21:38 | 64.20288 | -22.56513 | 17067 ft | 234 kts | 267° |
| 2026-04-28 21:39 | 64.20664 | -22.60160 | 17651 ft | 236 kts | 267° |
| 2026-04-28 21:39 | 64.21042 | -22.63841 | 18229 ft | 238 kts | 267° |
| 2026-04-28 21:39 | 64.21422 | -22.67550 | 18702 ft | 239 kts | 266° |
| 2026-04-28 21:39 | 64.21803 | -22.71283 | 19173 ft | 241 kts | 266° |
| 2026-04-28 21:40 | 64.22186 | -22.75051 | 19657 ft | 243 kts | 266° |
| 2026-04-28 21:40 | 64.22570 | -22.78854 | 20077 ft | 246 kts | 266° |
| 2026-04-28 21:40 | 64.22957 | -22.82693 | 20516 ft | 247 kts | 266° |
| 2026-04-28 21:40 | 64.23346 | -22.86557 | 20947 ft | 249 kts | 266° |
| 2026-04-28 21:41 | 64.23736 | -22.90456 | 21376 ft | 251 kts | 266° |
| 2026-04-28 21:41 | 64.24129 | -22.94381 | 21793 ft | 253 kts | 266° |
| 2026-04-28 21:41 | 64.24523 | -22.98337 | 22194 ft | 255 kts | 266° |
| 2026-04-28 21:41 | 64.24920 | -23.02326 | 22586 ft | 257 kts | 265° |
| 2026-04-28 21:42 | 64.25317 | -23.06340 | 22965 ft | 258 kts | 265° |
| 2026-04-28 21:42 | 64.25717 | -23.10389 | 23327 ft | 260 kts | 265° |
| 2026-04-28 21:42 | 64.26118 | -23.14456 | 23622 ft | 261 kts | 265° |
| 2026-04-28 21:42 | 64.26519 | -23.18541 | 23912 ft | 263 kts | 265° |
| 2026-04-28 21:43 | 64.26922 | -23.22649 | 24196 ft | 263 kts | 265° |
| 2026-04-28 21:43 | 64.27324 | -23.26767 | 24468 ft | 264 kts | 265° |
| 2026-04-28 21:43 | 64.27727 | -23.30904 | 24740 ft | 265 kts | 265° |
| 2026-04-28 21:43 | 64.28131 | -23.35061 | 25006 ft | 266 kts | 265° |
| 2026-04-28 21:44 | 64.28535 | -23.39232 | 25261 ft | 268 kts | 265° |
| 2026-04-28 21:44 | 64.28939 | -23.43426 | 25518 ft | 269 kts | 265° |
| 2026-04-28 21:44 | 64.29343 | -23.47632 | 25768 ft | 270 kts | 265° |
| 2026-04-28 21:44 | 64.29748 | -23.51853 | 26004 ft | 270 kts | 265° |
| 2026-04-28 21:45 | 64.30152 | -23.56088 | 26247 ft | 271 kts | 265° |
| 2026-04-28 21:45 | 64.30557 | -23.60342 | 26493 ft | 272 kts | 265° |
| 2026-04-28 21:45 | 64.30962 | -23.64610 | 26719 ft | 273 kts | 265° |
| 2026-04-28 21:45 | 64.31367 | -23.68898 | 26950 ft | 274 kts | 265° |
| 2026-04-28 21:46 | 64.31773 | -23.73201 | 27197 ft | 276 kts | 265° |
| 2026-04-28 21:46 | 64.32179 | -23.77532 | 27476 ft | 277 kts | 265° |
| 2026-04-28 21:46 | 64.32592 | -23.81869 | 27733 ft | 277 kts | 264° |
| 2026-04-28 21:46 | 64.32997 | -23.86211 | 27950 ft | 277 kts | 264° |
| 2026-04-28 21:47 | 64.33401 | -23.90563 | 28141 ft | 278 kts | 264° |
| 2026-04-28 21:47 | 64.33605 | -23.92766 | 28254 ft | 278 kts | 264° |